sensor_id;sensor_type;location;lat;lon;timestamp;P1;durP1;ratioP1;P2;durP2;ratioP2
23496;SDS011;11925;48.122;11.560;2023-04-25T00:01:50;4.75;;;1.50;;
23496;SDS011;11925;48.122;11.560;2023-04-25T00:04:19;2.13;;;1.27;;
23496;SDS011;11925;48.122;11.560;2023-04-25T00:06:48;4.10;;;1.58;;
23496;SDS011;11925;48.122;11.560;2023-04-25T00:09:18;4.05;;;1.60;;
23496;SDS011;11925;48.122;11.560;2023-04-25T00:11:46;3.78;;;1.35;;
23496;SDS011;11925;48.122;11.560;2023-04-25T00:14:15;1.95;;;1.30;;
23496;SDS011;11925;48.122;11.560;2023-04-25T00:16:43;2.15;;;1.33;;
23496;SDS011;11925;48.122;11.560;2023-04-25T00:19:11;3.80;;;1.50;;
23496;SDS011;11925;48.122;11.560;2023-04-25T00:21:40;3.17;;;1.90;;
23496;SDS011;11925;48.122;11.560;2023-04-25T00:24:08;3.00;;;1.52;;
23496;SDS011;11925;48.122;11.560;2023-04-25T00:26:38;2.97;;;1.40;;
23496;SDS011;11925;48.122;11.560;2023-04-25T00:29:06;2.78;;;1.50;;
23496;SDS011;11925;48.122;11.560;2023-04-25T00:31:34;2.28;;;1.30;;
23496;SDS011;11925;48.122;11.560;2023-04-25T00:34:03;3.05;;;1.50;;
23496;SDS011;11925;48.122;11.560;2023-04-25T00:36:31;2.70;;;1.27;;
23496;SDS011;11925;48.122;11.560;2023-04-25T00:38:59;3.65;;;1.75;;
23496;SDS011;11925;48.122;11.560;2023-04-25T00:44:01;3.53;;;1.40;;
23496;SDS011;11925;48.122;11.560;2023-04-25T00:46:31;2.30;;;1.70;;
23496;SDS011;11925;48.122;11.560;2023-04-25T00:49:00;5.00;;;1.55;;
23496;SDS011;11925;48.122;11.560;2023-04-25T00:51:30;2.97;;;1.70;;
23496;SDS011;11925;48.122;11.560;2023-04-25T00:54:00;2.80;;;1.60;;
23496;SDS011;11925;48.122;11.560;2023-04-25T00:56:29;2.10;;;1.48;;
23496;SDS011;11925;48.122;11.560;2023-04-25T00:58:57;2.20;;;1.40;;
23496;SDS011;11925;48.122;11.560;2023-04-25T01:01:28;1.83;;;1.27;;
23496;SDS011;11925;48.122;11.560;2023-04-25T01:03:58;2.37;;;1.43;;
23496;SDS011;11925;48.122;11.560;2023-04-25T01:06:28;2.58;;;1.55;;
23496;SDS011;11925;48.122;11.560;2023-04-25T01:08:56;4.97;;;1.50;;
23496;SDS011;11925;48.122;11.560;2023-04-25T01:11:26;2.47;;;1.38;;
23496;SDS011;11925;48.122;11.560;2023-04-25T01:13:55;2.97;;;1.58;;
23496;SDS011;11925;48.122;11.560;2023-04-25T01:16:23;3.60;;;1.50;;
23496;SDS011;11925;48.122;11.560;2023-04-25T01:18:53;2.83;;;1.85;;
23496;SDS011;11925;48.122;11.560;2023-04-25T01:21:24;2.58;;;1.48;;
23496;SDS011;11925;48.122;11.560;2023-04-25T01:23:55;3.22;;;1.73;;
23496;SDS011;11925;48.122;11.560;2023-04-25T01:26:25;2.67;;;1.60;;
23496;SDS011;11925;48.122;11.560;2023-04-25T01:28:54;2.78;;;1.63;;
23496;SDS011;11925;48.122;11.560;2023-04-25T01:31:22;3.03;;;1.58;;
23496;SDS011;11925;48.122;11.560;2023-04-25T01:33:51;4.15;;;2.03;;
23496;SDS011;11925;48.122;11.560;2023-04-25T01:36:20;2.22;;;1.73;;
23496;SDS011;11925;48.122;11.560;2023-04-25T01:38:50;3.58;;;1.58;;
23496;SDS011;11925;48.122;11.560;2023-04-25T01:41:21;2.75;;;1.40;;
23496;SDS011;11925;48.122;11.560;2023-04-25T01:43:49;2.67;;;1.63;;
23496;SDS011;11925;48.122;11.560;2023-04-25T01:46:18;2.53;;;1.70;;
23496;SDS011;11925;48.122;11.560;2023-04-25T01:48:47;2.80;;;1.40;;
23496;SDS011;11925;48.122;11.560;2023-04-25T01:51:16;2.55;;;1.42;;
23496;SDS011;11925;48.122;11.560;2023-04-25T01:53:45;2.67;;;1.40;;
23496;SDS011;11925;48.122;11.560;2023-04-25T01:56:15;2.65;;;1.55;;
23496;SDS011;11925;48.122;11.560;2023-04-25T01:58:45;3.55;;;1.60;;
23496;SDS011;11925;48.122;11.560;2023-04-25T02:01:19;5.05;;;1.50;;
23496;SDS011;11925;48.122;11.560;2023-04-25T02:04:05;4.13;;;1.52;;
23496;SDS011;11925;48.122;11.560;2023-04-25T02:06:35;2.80;;;1.43;;
23496;SDS011;11925;48.122;11.560;2023-04-25T02:09:05;4.53;;;1.63;;
23496;SDS011;11925;48.122;11.560;2023-04-25T02:11:39;2.78;;;1.50;;
23496;SDS011;11925;48.122;11.560;2023-04-25T02:14:24;4.75;;;2.00;;
23496;SDS011;11925;48.122;11.560;2023-04-25T02:17:01;3.10;;;1.55;;
23496;SDS011;11925;48.122;11.560;2023-04-25T02:19:31;3.97;;;1.70;;
23496;SDS011;11925;48.122;11.560;2023-04-25T02:22:00;2.95;;;2.00;;
23496;SDS011;11925;48.122;11.560;2023-04-25T02:24:28;3.97;;;2.17;;
23496;SDS011;11925;48.122;11.560;2023-04-25T02:26:59;4.57;;;1.73;;
23496;SDS011;11925;48.122;11.560;2023-04-25T02:29:27;2.75;;;1.85;;
23496;SDS011;11925;48.122;11.560;2023-04-25T02:31:56;2.92;;;1.85;;
23496;SDS011;11925;48.122;11.560;2023-04-25T02:34:25;3.42;;;1.60;;
23496;SDS011;11925;48.122;11.560;2023-04-25T02:36:53;5.05;;;1.77;;
23496;SDS011;11925;48.122;11.560;2023-04-25T02:39:22;3.90;;;2.28;;
23496;SDS011;11925;48.122;11.560;2023-04-25T02:41:51;4.97;;;1.65;;
23496;SDS011;11925;48.122;11.560;2023-04-25T02:44:22;3.58;;;1.60;;
23496;SDS011;11925;48.122;11.560;2023-04-25T02:46:50;3.47;;;1.80;;
23496;SDS011;11925;48.122;11.560;2023-04-25T02:49:19;2.40;;;1.60;;
23496;SDS011;11925;48.122;11.560;2023-04-25T02:51:47;5.90;;;1.80;;
23496;SDS011;11925;48.122;11.560;2023-04-25T02:54:16;9.00;;;2.17;;
23496;SDS011;11925;48.122;11.560;2023-04-25T02:56:46;2.97;;;1.58;;
23496;SDS011;11925;48.122;11.560;2023-04-25T02:59:22;3.28;;;1.65;;
23496;SDS011;11925;48.122;11.560;2023-04-25T03:01:51;2.80;;;1.73;;
23496;SDS011;11925;48.122;11.560;2023-04-25T03:04:20;5.25;;;1.90;;
23496;SDS011;11925;48.122;11.560;2023-04-25T03:06:50;5.68;;;1.88;;
23496;SDS011;11925;48.122;11.560;2023-04-25T03:09:20;3.67;;;1.58;;
23496;SDS011;11925;48.122;11.560;2023-04-25T03:11:51;3.53;;;1.48;;
23496;SDS011;11925;48.122;11.560;2023-04-25T03:14:19;2.72;;;1.70;;
23496;SDS011;11925;48.122;11.560;2023-04-25T03:16:50;4.32;;;1.80;;
23496;SDS011;11925;48.122;11.560;2023-04-25T03:19:19;2.15;;;1.58;;
23496;SDS011;11925;48.122;11.560;2023-04-25T03:21:48;2.83;;;1.60;;
23496;SDS011;11925;48.122;11.560;2023-04-25T03:24:16;3.05;;;1.60;;
23496;SDS011;11925;48.122;11.560;2023-04-25T03:26:45;2.03;;;1.55;;
23496;SDS011;11925;48.122;11.560;2023-04-25T03:29:13;4.45;;;1.70;;
23496;SDS011;11925;48.122;11.560;2023-04-25T03:31:43;2.88;;;1.65;;
23496;SDS011;11925;48.122;11.560;2023-04-25T03:34:13;3.63;;;1.80;;
23496;SDS011;11925;48.122;11.560;2023-04-25T03:36:41;3.13;;;1.70;;
23496;SDS011;11925;48.122;11.560;2023-04-25T03:39:10;4.47;;;1.55;;
23496;SDS011;11925;48.122;11.560;2023-04-25T03:41:42;3.72;;;1.40;;
23496;SDS011;11925;48.122;11.560;2023-04-25T03:44:13;5.40;;;1.58;;
23496;SDS011;11925;48.122;11.560;2023-04-25T03:46:41;2.63;;;1.23;;
23496;SDS011;11925;48.122;11.560;2023-04-25T03:49:10;5.68;;;2.25;;
23496;SDS011;11925;48.122;11.560;2023-04-25T03:51:56;2.67;;;1.30;;
23496;SDS011;11925;48.122;11.560;2023-04-25T03:54:25;3.42;;;1.45;;
23496;SDS011;11925;48.122;11.560;2023-04-25T03:56:58;3.55;;;1.27;;
23496;SDS011;11925;48.122;11.560;2023-04-25T03:59:28;1.70;;;1.05;;
23496;SDS011;11925;48.122;11.560;2023-04-25T04:01:57;2.70;;;1.30;;
23496;SDS011;11925;48.122;11.560;2023-04-25T04:04:25;1.60;;;1.10;;
23496;SDS011;11925;48.122;11.560;2023-04-25T04:06:56;1.65;;;1.13;;
23496;SDS011;11925;48.122;11.560;2023-04-25T04:09:27;4.05;;;1.10;;
23496;SDS011;11925;48.122;11.560;2023-04-25T04:11:58;3.10;;;1.38;;
23496;SDS011;11925;48.122;11.560;2023-04-25T04:16:57;2.25;;;1.00;;
23496;SDS011;11925;48.122;11.560;2023-04-25T04:19:27;2.33;;;1.20;;
23496;SDS011;11925;48.122;11.560;2023-04-25T04:22:09;2.85;;;1.15;;
23496;SDS011;11925;48.122;11.560;2023-04-25T04:24:39;1.63;;;1.00;;
23496;SDS011;11925;48.122;11.560;2023-04-25T04:27:12;2.97;;;1.30;;
23496;SDS011;11925;48.122;11.560;2023-04-25T04:30:01;2.60;;;1.15;;
23496;SDS011;11925;48.122;11.560;2023-04-25T04:32:36;2.65;;;1.13;;
23496;SDS011;11925;48.122;11.560;2023-04-25T04:35:05;2.00;;;1.40;;
23496;SDS011;11925;48.122;11.560;2023-04-25T04:37:37;3.40;;;1.30;;
23496;SDS011;11925;48.122;11.560;2023-04-25T04:40:08;2.67;;;1.20;;
23496;SDS011;11925;48.122;11.560;2023-04-25T04:43:00;1.75;;;1.05;;
23496;SDS011;11925;48.122;11.560;2023-04-25T04:45:45;2.95;;;1.00;;
23496;SDS011;11925;48.122;11.560;2023-04-25T04:48:31;2.10;;;1.13;;
23496;SDS011;11925;48.122;11.560;2023-04-25T04:51:39;2.45;;;1.27;;
23496;SDS011;11925;48.122;11.560;2023-04-25T04:54:34;2.80;;;1.40;;
23496;SDS011;11925;48.122;11.560;2023-04-25T04:57:32;2.88;;;1.25;;
23496;SDS011;11925;48.122;11.560;2023-04-25T05:00:22;2.80;;;1.20;;
23496;SDS011;11925;48.122;11.560;2023-04-25T05:03:12;2.38;;;1.05;;
23496;SDS011;11925;48.122;11.560;2023-04-25T05:06:05;6.32;;;1.38;;
23496;SDS011;11925;48.122;11.560;2023-04-25T05:08:53;4.07;;;1.70;;
23496;SDS011;11925;48.122;11.560;2023-04-25T05:11:38;4.45;;;1.58;;
23496;SDS011;11925;48.122;11.560;2023-04-25T05:14:45;3.05;;;1.70;;
23496;SDS011;11925;48.122;11.560;2023-04-25T05:17:31;4.38;;;1.70;;
23496;SDS011;11925;48.122;11.560;2023-04-25T05:20:24;5.55;;;1.30;;
23496;SDS011;11925;48.122;11.560;2023-04-25T05:25:48;2.47;;;1.20;;
23496;SDS011;11925;48.122;11.560;2023-04-25T05:28:31;2.38;;;1.38;;
23496;SDS011;11925;48.122;11.560;2023-04-25T05:31:13;3.65;;;1.60;;
23496;SDS011;11925;48.122;11.560;2023-04-25T05:33:48;3.78;;;1.50;;
23496;SDS011;11925;48.122;11.560;2023-04-25T05:36:18;3.00;;;1.50;;
23496;SDS011;11925;48.122;11.560;2023-04-25T05:38:47;1.83;;;1.48;;
23496;SDS011;11925;48.122;11.560;2023-04-25T05:41:21;4.07;;;1.45;;
23496;SDS011;11925;48.122;11.560;2023-04-25T05:44:22;5.13;;;1.73;;
23496;SDS011;11925;48.122;11.560;2023-04-25T05:47:10;2.80;;;1.33;;
23496;SDS011;11925;48.122;11.560;2023-04-25T05:50:03;3.70;;;2.30;;
23496;SDS011;11925;48.122;11.560;2023-04-25T05:52:42;5.00;;;2.17;;
23496;SDS011;11925;48.122;11.560;2023-04-25T05:55:23;5.28;;;1.88;;
23496;SDS011;11925;48.122;11.560;2023-04-25T05:57:56;4.10;;;1.98;;
23496;SDS011;11925;48.122;11.560;2023-04-25T06:00:26;4.05;;;1.83;;
23496;SDS011;11925;48.122;11.560;2023-04-25T06:02:55;3.88;;;1.77;;
23496;SDS011;11925;48.122;11.560;2023-04-25T06:05:23;4.05;;;1.60;;
23496;SDS011;11925;48.122;11.560;2023-04-25T06:07:52;2.50;;;1.40;;
23496;SDS011;11925;48.122;11.560;2023-04-25T06:10:20;5.20;;;1.75;;
23496;SDS011;11925;48.122;11.560;2023-04-25T06:12:50;5.22;;;2.22;;
23496;SDS011;11925;48.122;11.560;2023-04-25T06:15:21;3.67;;;1.80;;
23496;SDS011;11925;48.122;11.560;2023-04-25T06:17:56;4.85;;;2.10;;
23496;SDS011;11925;48.122;11.560;2023-04-25T06:20:24;4.72;;;1.92;;
23496;SDS011;11925;48.122;11.560;2023-04-25T06:22:56;3.40;;;1.48;;
23496;SDS011;11925;48.122;11.560;2023-04-25T06:25:47;5.27;;;1.77;;
23496;SDS011;11925;48.122;11.560;2023-04-25T06:28:15;3.83;;;2.17;;
23496;SDS011;11925;48.122;11.560;2023-04-25T06:30:44;23.27;;;10.60;;
23496;SDS011;11925;48.122;11.560;2023-04-25T06:33:17;8.80;;;3.92;;
23496;SDS011;11925;48.122;11.560;2023-04-25T06:35:48;11.85;;;5.10;;
23496;SDS011;11925;48.122;11.560;2023-04-25T06:38:20;5.13;;;3.28;;
23496;SDS011;11925;48.122;11.560;2023-04-25T06:40:51;10.90;;;6.50;;
23496;SDS011;11925;48.122;11.560;2023-04-25T06:43:19;7.32;;;3.50;;
23496;SDS011;11925;48.122;11.560;2023-04-25T06:46:02;6.20;;;2.90;;
23496;SDS011;11925;48.122;11.560;2023-04-25T06:48:35;5.55;;;3.10;;
23496;SDS011;11925;48.122;11.560;2023-04-25T06:51:04;7.22;;;3.15;;
23496;SDS011;11925;48.122;11.560;2023-04-25T06:53:34;4.95;;;2.20;;
23496;SDS011;11925;48.122;11.560;2023-04-25T06:56:05;4.25;;;2.60;;
23496;SDS011;11925;48.122;11.560;2023-04-25T06:58:45;6.43;;;2.67;;
23496;SDS011;11925;48.122;11.560;2023-04-25T07:01:22;3.72;;;2.50;;
23496;SDS011;11925;48.122;11.560;2023-04-25T07:03:53;4.38;;;2.47;;
23496;SDS011;11925;48.122;11.560;2023-04-25T07:06:22;5.17;;;2.57;;
23496;SDS011;11925;48.122;11.560;2023-04-25T07:08:53;5.82;;;2.95;;
23496;SDS011;11925;48.122;11.560;2023-04-25T07:11:23;4.68;;;2.20;;
23496;SDS011;11925;48.122;11.560;2023-04-25T07:13:51;4.65;;;2.25;;
23496;SDS011;11925;48.122;11.560;2023-04-25T07:16:20;4.20;;;2.05;;
23496;SDS011;11925;48.122;11.560;2023-04-25T07:18:48;5.30;;;2.30;;
23496;SDS011;11925;48.122;11.560;2023-04-25T07:21:19;3.63;;;1.90;;
23496;SDS011;11925;48.122;11.560;2023-04-25T07:23:50;3.38;;;2.35;;
23496;SDS011;11925;48.122;11.560;2023-04-25T07:26:24;3.40;;;1.70;;
23496;SDS011;11925;48.122;11.560;2023-04-25T07:29:25;3.30;;;2.42;;
23496;SDS011;11925;48.122;11.560;2023-04-25T07:31:54;4.95;;;2.08;;
23496;SDS011;11925;48.122;11.560;2023-04-25T07:34:22;4.45;;;1.90;;
23496;SDS011;11925;48.122;11.560;2023-04-25T07:36:52;5.55;;;1.90;;
23496;SDS011;11925;48.122;11.560;2023-04-25T07:41:51;5.15;;;2.10;;
23496;SDS011;11925;48.122;11.560;2023-04-25T07:44:24;4.45;;;2.00;;
23496;SDS011;11925;48.122;11.560;2023-04-25T07:46:53;4.80;;;2.58;;
23496;SDS011;11925;48.122;11.560;2023-04-25T07:49:22;3.58;;;1.77;;
23496;SDS011;11925;48.122;11.560;2023-04-25T07:51:52;4.72;;;1.85;;
23496;SDS011;11925;48.122;11.560;2023-04-25T07:54:22;4.20;;;2.37;;
23496;SDS011;11925;48.122;11.560;2023-04-25T07:56:56;5.45;;;2.30;;
23496;SDS011;11925;48.122;11.560;2023-04-25T07:59:28;3.70;;;2.10;;
23496;SDS011;11925;48.122;11.560;2023-04-25T08:01:59;4.03;;;2.03;;
23496;SDS011;11925;48.122;11.560;2023-04-25T08:04:29;3.92;;;2.20;;
23496;SDS011;11925;48.122;11.560;2023-04-25T08:07:03;4.47;;;2.40;;
23496;SDS011;11925;48.122;11.560;2023-04-25T08:09:40;4.55;;;2.10;;
23496;SDS011;11925;48.122;11.560;2023-04-25T08:12:15;3.88;;;2.60;;
23496;SDS011;11925;48.122;11.560;2023-04-25T08:14:44;5.47;;;2.35;;
23496;SDS011;11925;48.122;11.560;2023-04-25T08:17:12;5.22;;;2.47;;
23496;SDS011;11925;48.122;11.560;2023-04-25T08:19:41;5.45;;;2.72;;
23496;SDS011;11925;48.122;11.560;2023-04-25T08:22:20;6.85;;;4.95;;
23496;SDS011;11925;48.122;11.560;2023-04-25T08:25:09;8.75;;;5.05;;
23496;SDS011;11925;48.122;11.560;2023-04-25T08:27:38;6.50;;;3.28;;
23496;SDS011;11925;48.122;11.560;2023-04-25T08:30:08;6.15;;;3.50;;
23496;SDS011;11925;48.122;11.560;2023-04-25T08:32:38;6.03;;;3.43;;
23496;SDS011;11925;48.122;11.560;2023-04-25T08:35:21;3.92;;;2.80;;
23496;SDS011;11925;48.122;11.560;2023-04-25T08:37:52;4.95;;;3.22;;
23496;SDS011;11925;48.122;11.560;2023-04-25T08:40:20;4.90;;;3.00;;
23496;SDS011;11925;48.122;11.560;2023-04-25T08:43:00;4.72;;;2.30;;
23496;SDS011;11925;48.122;11.560;2023-04-25T08:45:31;4.05;;;2.50;;
23496;SDS011;11925;48.122;11.560;2023-04-25T08:48:01;5.22;;;2.38;;
23496;SDS011;11925;48.122;11.560;2023-04-25T08:50:31;5.20;;;2.30;;
23496;SDS011;11925;48.122;11.560;2023-04-25T08:53:02;4.70;;;1.88;;
23496;SDS011;11925;48.122;11.560;2023-04-25T08:55:36;4.60;;;1.98;;
23496;SDS011;11925;48.122;11.560;2023-04-25T08:58:09;5.38;;;1.88;;
23496;SDS011;11925;48.122;11.560;2023-04-25T09:00:38;6.68;;;1.90;;
23496;SDS011;11925;48.122;11.560;2023-04-25T09:03:07;3.25;;;1.73;;
23496;SDS011;11925;48.122;11.560;2023-04-25T09:05:35;5.60;;;1.85;;
23496;SDS011;11925;48.122;11.560;2023-04-25T09:08:05;2.22;;;1.35;;
23496;SDS011;11925;48.122;11.560;2023-04-25T09:10:34;2.70;;;1.42;;
23496;SDS011;11925;48.122;11.560;2023-04-25T09:13:05;3.38;;;1.30;;
23496;SDS011;11925;48.122;11.560;2023-04-25T09:15:57;3.63;;;1.27;;
23496;SDS011;11925;48.122;11.560;2023-04-25T09:18:46;3.63;;;1.10;;
23496;SDS011;11925;48.122;11.560;2023-04-25T09:21:17;4.55;;;1.48;;
23496;SDS011;11925;48.122;11.560;2023-04-25T09:23:51;4.00;;;1.17;;
23496;SDS011;11925;48.122;11.560;2023-04-25T09:26:20;2.75;;;1.40;;
23496;SDS011;11925;48.122;11.560;2023-04-25T09:28:49;4.00;;;1.42;;
23496;SDS011;11925;48.122;11.560;2023-04-25T09:31:37;6.60;;;1.63;;
23496;SDS011;11925;48.122;11.560;2023-04-25T09:34:07;6.75;;;1.25;;
23496;SDS011;11925;48.122;11.560;2023-04-25T09:36:43;3.83;;;1.30;;
23496;SDS011;11925;48.122;11.560;2023-04-25T09:39:18;2.50;;;1.70;;
23496;SDS011;11925;48.122;11.560;2023-04-25T09:41:59;4.13;;;2.03;;
23496;SDS011;11925;48.122;11.560;2023-04-25T09:44:28;5.15;;;1.75;;
23496;SDS011;11925;48.122;11.560;2023-04-25T09:46:56;3.15;;;1.60;;
23496;SDS011;11925;48.122;11.560;2023-04-25T09:49:28;4.57;;;1.52;;
23496;SDS011;11925;48.122;11.560;2023-04-25T09:52:03;2.65;;;1.35;;
23496;SDS011;11925;48.122;11.560;2023-04-25T09:54:57;2.35;;;1.20;;
23496;SDS011;11925;48.122;11.560;2023-04-25T09:57:32;3.97;;;2.00;;
23496;SDS011;11925;48.122;11.560;2023-04-25T10:00:02;2.33;;;1.38;;
23496;SDS011;11925;48.122;11.560;2023-04-25T10:02:45;3.95;;;1.70;;
23496;SDS011;11925;48.122;11.560;2023-04-25T10:05:50;3.30;;;1.70;;
23496;SDS011;11925;48.122;11.560;2023-04-25T10:08:20;3.22;;;1.30;;
23496;SDS011;11925;48.122;11.560;2023-04-25T10:10:51;4.40;;;1.75;;
23496;SDS011;11925;48.122;11.560;2023-04-25T10:13:19;3.17;;;1.25;;
23496;SDS011;11925;48.122;11.560;2023-04-25T10:15:47;3.20;;;1.50;;
23496;SDS011;11925;48.122;11.560;2023-04-25T10:18:16;3.67;;;1.63;;
23496;SDS011;11925;48.122;11.560;2023-04-25T10:20:46;5.50;;;1.63;;
23496;SDS011;11925;48.122;11.560;2023-04-25T10:23:14;5.13;;;1.90;;
23496;SDS011;11925;48.122;11.560;2023-04-25T10:25:43;3.75;;;1.83;;
23496;SDS011;11925;48.122;11.560;2023-04-25T10:28:14;3.38;;;1.70;;
23496;SDS011;11925;48.122;11.560;2023-04-25T10:30:56;3.75;;;1.70;;
23496;SDS011;11925;48.122;11.560;2023-04-25T10:33:29;3.13;;;1.40;;
23496;SDS011;11925;48.122;11.560;2023-04-25T10:36:08;3.25;;;1.65;;
23496;SDS011;11925;48.122;11.560;2023-04-25T10:38:37;4.85;;;1.80;;
23496;SDS011;11925;48.122;11.560;2023-04-25T10:41:07;5.45;;;1.75;;
23496;SDS011;11925;48.122;11.560;2023-04-25T10:43:38;7.22;;;1.80;;
23496;SDS011;11925;48.122;11.560;2023-04-25T10:46:17;4.22;;;1.52;;
23496;SDS011;11925;48.122;11.560;2023-04-25T10:48:49;2.20;;;1.40;;
23496;SDS011;11925;48.122;11.560;2023-04-25T10:51:19;2.75;;;1.20;;
23496;SDS011;11925;48.122;11.560;2023-04-25T10:53:56;1.60;;;1.10;;
23496;SDS011;11925;48.122;11.560;2023-04-25T10:56:27;3.45;;;1.20;;
23496;SDS011;11925;48.122;11.560;2023-04-25T10:59:04;2.65;;;1.00;;
23496;SDS011;11925;48.122;11.560;2023-04-25T11:01:38;1.33;;;0.95;;
23496;SDS011;11925;48.122;11.560;2023-04-25T11:04:18;2.55;;;0.90;;
23496;SDS011;11925;48.122;11.560;2023-04-25T11:06:53;2.97;;;1.20;;
23496;SDS011;11925;48.122;11.560;2023-04-25T11:09:41;3.25;;;1.48;;
23496;SDS011;11925;48.122;11.560;2023-04-25T11:12:09;3.38;;;1.95;;
23496;SDS011;11925;48.122;11.560;2023-04-25T11:14:41;4.63;;;1.55;;
23496;SDS011;11925;48.122;11.560;2023-04-25T11:17:10;2.90;;;1.60;;
23496;SDS011;11925;48.122;11.560;2023-04-25T11:19:39;3.40;;;1.50;;
23496;SDS011;11925;48.122;11.560;2023-04-25T11:22:08;3.00;;;1.25;;
23496;SDS011;11925;48.122;11.560;2023-04-25T11:24:38;1.95;;;1.30;;
23496;SDS011;11925;48.122;11.560;2023-04-25T11:27:06;1.55;;;1.10;;
23496;SDS011;11925;48.122;11.560;2023-04-25T11:29:35;3.85;;;0.90;;
23496;SDS011;11925;48.122;11.560;2023-04-25T11:32:05;1.63;;;0.95;;
23496;SDS011;11925;48.122;11.560;2023-04-25T11:34:34;3.20;;;1.10;;
23496;SDS011;11925;48.122;11.560;2023-04-25T11:37:03;4.35;;;1.20;;
23496;SDS011;11925;48.122;11.560;2023-04-25T11:39:34;5.13;;;1.05;;
23496;SDS011;11925;48.122;11.560;2023-04-25T11:42:03;1.67;;;0.77;;
23496;SDS011;11925;48.122;11.560;2023-04-25T11:44:52;1.92;;;0.95;;
23496;SDS011;11925;48.122;11.560;2023-04-25T11:47:21;2.70;;;0.90;;
23496;SDS011;11925;48.122;11.560;2023-04-25T11:49:57;1.73;;;0.88;;
23496;SDS011;11925;48.122;11.560;2023-04-25T11:52:35;2.88;;;1.08;;
23496;SDS011;11925;48.122;11.560;2023-04-25T11:55:05;3.33;;;1.17;;
23496;SDS011;11925;48.122;11.560;2023-04-25T11:57:37;3.42;;;1.10;;
23496;SDS011;11925;48.122;11.560;2023-04-25T12:00:08;2.10;;;0.93;;
23496;SDS011;11925;48.122;11.560;2023-04-25T12:02:44;1.77;;;1.10;;
23496;SDS011;11925;48.122;11.560;2023-04-25T12:05:15;1.63;;;1.05;;
23496;SDS011;11925;48.122;11.560;2023-04-25T12:07:46;2.00;;;0.90;;
23496;SDS011;11925;48.122;11.560;2023-04-25T12:10:15;2.05;;;0.80;;
23496;SDS011;11925;48.122;11.560;2023-04-25T12:12:46;1.35;;;0.80;;
23496;SDS011;11925;48.122;11.560;2023-04-25T12:15:16;1.67;;;0.80;;
23496;SDS011;11925;48.122;11.560;2023-04-25T12:17:48;1.20;;;0.70;;
23496;SDS011;11925;48.122;11.560;2023-04-25T12:20:18;1.90;;;0.70;;
23496;SDS011;11925;48.122;11.560;2023-04-25T12:22:50;1.10;;;0.73;;
23496;SDS011;11925;48.122;11.560;2023-04-25T12:25:35;1.05;;;0.73;;
23496;SDS011;11925;48.122;11.560;2023-04-25T12:28:14;1.42;;;0.80;;
23496;SDS011;11925;48.122;11.560;2023-04-25T12:30:52;1.75;;;0.80;;
23496;SDS011;11925;48.122;11.560;2023-04-25T12:33:27;1.83;;;0.80;;
23496;SDS011;11925;48.122;11.560;2023-04-25T12:35:57;1.85;;;0.60;;
23496;SDS011;11925;48.122;11.560;2023-04-25T12:38:27;0.82;;;0.47;;
23496;SDS011;11925;48.122;11.560;2023-04-25T12:40:56;1.98;;;0.70;;
23496;SDS011;11925;48.122;11.560;2023-04-25T12:43:25;1.25;;;0.68;;
23496;SDS011;11925;48.122;11.560;2023-04-25T12:45:54;1.08;;;0.70;;
23496;SDS011;11925;48.122;11.560;2023-04-25T12:48:23;0.73;;;0.60;;
23496;SDS011;11925;48.122;11.560;2023-04-25T12:50:53;2.08;;;0.60;;
23496;SDS011;11925;48.122;11.560;2023-04-25T12:53:22;1.42;;;0.70;;
23496;SDS011;11925;48.122;11.560;2023-04-25T12:55:51;1.88;;;0.90;;
23496;SDS011;11925;48.122;11.560;2023-04-25T12:58:20;1.17;;;0.70;;
23496;SDS011;11925;48.122;11.560;2023-04-25T13:00:50;3.13;;;1.00;;
23496;SDS011;11925;48.122;11.560;2023-04-25T13:03:18;1.20;;;0.80;;
23496;SDS011;11925;48.122;11.560;2023-04-25T13:05:47;2.05;;;0.77;;
23496;SDS011;11925;48.122;11.560;2023-04-25T13:08:18;1.00;;;0.65;;
23496;SDS011;11925;48.122;11.560;2023-04-25T13:10:47;1.15;;;0.60;;
23496;SDS011;11925;48.122;11.560;2023-04-25T13:13:15;1.15;;;0.70;;
23496;SDS011;11925;48.122;11.560;2023-04-25T13:15:44;0.85;;;0.50;;
23496;SDS011;11925;48.122;11.560;2023-04-25T13:18:12;0.85;;;0.50;;
23496;SDS011;11925;48.122;11.560;2023-04-25T13:20:41;2.20;;;0.60;;
23496;SDS011;11925;48.122;11.560;2023-04-25T13:23:09;2.20;;;0.70;;
23496;SDS011;11925;48.122;11.560;2023-04-25T13:25:39;0.95;;;0.52;;
23496;SDS011;11925;48.122;11.560;2023-04-25T13:28:07;1.15;;;0.70;;
23496;SDS011;11925;48.122;11.560;2023-04-25T13:30:36;2.03;;;0.77;;
23496;SDS011;11925;48.122;11.560;2023-04-25T13:33:04;1.02;;;0.68;;
23496;SDS011;11925;48.122;11.560;2023-04-25T13:35:33;1.48;;;0.75;;
23496;SDS011;11925;48.122;11.560;2023-04-25T13:38:02;2.60;;;0.70;;
23496;SDS011;11925;48.122;11.560;2023-04-25T13:40:31;1.30;;;0.80;;
23496;SDS011;11925;48.122;11.560;2023-04-25T13:43:01;1.30;;;0.60;;
23496;SDS011;11925;48.122;11.560;2023-04-25T13:45:30;1.58;;;0.70;;
23496;SDS011;11925;48.122;11.560;2023-04-25T13:47:59;1.27;;;0.60;;
23496;SDS011;11925;48.122;11.560;2023-04-25T13:50:28;1.33;;;0.50;;
23496;SDS011;11925;48.122;11.560;2023-04-25T13:52:56;1.60;;;0.50;;
23496;SDS011;11925;48.122;11.560;2023-04-25T13:55:25;1.45;;;0.60;;
23496;SDS011;11925;48.122;11.560;2023-04-25T13:57:53;2.08;;;0.65;;
23496;SDS011;11925;48.122;11.560;2023-04-25T14:00:23;2.03;;;0.98;;
23496;SDS011;11925;48.122;11.560;2023-04-25T14:02:52;2.47;;;0.82;;
23496;SDS011;11925;48.122;11.560;2023-04-25T14:07:52;1.33;;;0.70;;
23496;SDS011;11925;48.122;11.560;2023-04-25T14:10:21;2.03;;;0.70;;
23496;SDS011;11925;48.122;11.560;2023-04-25T14:12:50;1.52;;;0.80;;
23496;SDS011;11925;48.122;11.560;2023-04-25T14:15:18;0.82;;;0.60;;
23496;SDS011;11925;48.122;11.560;2023-04-25T14:17:48;1.10;;;0.60;;
23496;SDS011;11925;48.122;11.560;2023-04-25T14:20:16;0.70;;;0.50;;
23496;SDS011;11925;48.122;11.560;2023-04-25T14:22:46;1.75;;;0.50;;
23496;SDS011;11925;48.122;11.560;2023-04-25T14:25:15;1.05;;;0.47;;
23496;SDS011;11925;48.122;11.560;2023-04-25T14:27:43;1.25;;;0.50;;
23496;SDS011;11925;48.122;11.560;2023-04-25T14:30:16;1.60;;;0.98;;
23496;SDS011;11925;48.122;11.560;2023-04-25T14:32:44;0.88;;;0.50;;
23496;SDS011;11925;48.122;11.560;2023-04-25T14:35:14;0.68;;;0.40;;
23496;SDS011;11925;48.122;11.560;2023-04-25T14:37:43;1.17;;;0.30;;
23496;SDS011;11925;48.122;11.560;2023-04-25T14:40:11;0.95;;;0.50;;
23496;SDS011;11925;48.122;11.560;2023-04-25T14:42:41;1.75;;;0.50;;
23496;SDS011;11925;48.122;11.560;2023-04-25T14:45:10;0.73;;;0.50;;
23496;SDS011;11925;48.122;11.560;2023-04-25T14:47:39;1.80;;;0.63;;
23496;SDS011;11925;48.122;11.560;2023-04-25T14:50:08;1.90;;;0.68;;
23496;SDS011;11925;48.122;11.560;2023-04-25T14:52:38;1.05;;;0.70;;
23496;SDS011;11925;48.122;11.560;2023-04-25T14:55:07;1.05;;;0.60;;
23496;SDS011;11925;48.122;11.560;2023-04-25T14:57:36;0.88;;;0.60;;
23496;SDS011;11925;48.122;11.560;2023-04-25T15:00:06;1.17;;;0.60;;
23496;SDS011;11925;48.122;11.560;2023-04-25T15:02:36;0.60;;;0.50;;
23496;SDS011;11925;48.122;11.560;2023-04-25T15:05:05;1.65;;;0.60;;
23496;SDS011;11925;48.122;11.560;2023-04-25T15:07:34;0.65;;;0.43;;
23496;SDS011;11925;48.122;11.560;2023-04-25T15:10:05;1.95;;;0.52;;
23496;SDS011;11925;48.122;11.560;2023-04-25T15:12:39;0.70;;;0.40;;
23496;SDS011;11925;48.122;11.560;2023-04-25T15:15:08;0.82;;;0.50;;
23496;SDS011;11925;48.122;11.560;2023-04-25T15:17:43;0.80;;;0.50;;